Time;durP1;ratioP1;P1;durP2;ratioP2;P2;SDS_P1;SDS_P2;PMS_P1;PMS_P2;Temp;Humidity;BMP_temperature;BMP_pressure;BME280_temperature;BME280_humidity;BME280_pressure;Samples;Min_cycle;Max_cycle;Signal;HPM_P1;HPM_P2
2023/01/19 00:00:14;;;;;;;0.00;0.00;;;3.40;99.90;;;;;;5059208;28;20473;-84
2023/01/19 00:02:42;;;;;;;0.20;0.20;;;3.10;99.90;;;;;;5075391;28;20510;-84
2023/01/19 00:05:10;;;;;;;0.00;0.00;;;3.50;99.90;;;;;;5075772;28;20048;-84
2023/01/19 00:07:36;;;;;;;0.15;0.10;;;3.10;99.90;;;;;;5075660;28;20097;-84
2023/01/19 00:10:02;;;;;;;0.10;0.10;;;3.00;99.90;;;;;;5075898;28;20040;-84
2023/01/19 00:12:28;;;;;;;0.05;0.03;;;3.00;99.90;;;;;;5092564;28;20044;-84
2023/01/19 00:14:53;;;;;;;0.05;0.03;;;3.30;99.90;;;;;;5058817;28;20515;-84
2023/01/19 00:17:19;;;;;;;0.30;0.10;;;3.20;99.90;;;;;;5059119;28;20051;-84
2023/01/19 00:19:45;;;;;;;1.25;0.52;;;3.00;99.90;;;;;;5058897;28;20047;-84
2023/01/19 00:22:10;;;;;;;0.00;0.00;;;3.20;99.90;;;;;;5058854;28;20361;-83
2023/01/19 00:24:36;;;;;;;1.38;0.43;;;2.90;99.90;;;;;;5060396;28;20040;-83
2023/01/19 00:27:02;;;;;;;0.00;0.00;;;3.10;99.90;;;;;;5062747;28;20084;-83
2023/01/19 00:29:33;;;;;;;0.10;0.10;;;2.90;99.90;;;;;;5079803;28;20100;-83
2023/01/19 00:32:00;;;;;;;0.90;0.90;;;2.90;99.90;;;;;;5096415;28;20474;-83
2023/01/19 00:34:25;;;;;;;0.88;0.40;;;2.90;99.90;;;;;;5078727;28;20036;-84
2023/01/19 00:36:51;;;;;;;0.00;0.00;;;2.90;99.90;;;;;;5062859;28;20145;-83
2023/01/19 00:39:17;;;;;;;0.52;0.10;;;2.90;99.90;;;;;;5062875;28;20051;-84
2023/01/19 00:44:27;;;;;;;2.42;0.22;;;2.80;99.90;;;;;;5096291;28;20051;-83
2023/01/19 00:46:53;;;;;;;0.32;0.08;;;3.20;99.90;;;;;;5046301;28;20050;-84
2023/01/19 00:49:19;;;;;;;0.10;0.00;;;2.70;99.90;;;;;;5079439;28;20043;-84
2023/01/19 00:51:45;;;;;;;0.98;0.60;;;3.20;99.90;;;;;;5046167;28;20051;-84
2023/01/19 00:54:10;;;;;;;2.40;0.20;;;2.80;99.90;;;;;;5079569;28;20036;-84
2023/01/19 00:56:36;;;;;;;0.08;0.08;;;2.80;99.90;;;;;;5062673;28;20047;-84
2023/01/19 00:59:02;;;;;;;0.00;0.00;;;3.30;99.90;;;;;;5079268;28;20036;-84
2023/01/19 01:01:28;;;;;;;0.00;0.00;;;3.20;99.90;;;;;;5078999;28;20128;-84
2023/01/19 01:03:54;;;;;;;0.00;0.00;;;2.70;99.90;;;;;;5078273;28;20530;-84
2023/01/19 01:06:20;;;;;;;0.00;0.00;;;2.70;99.90;;;;;;5079291;28;20094;-83
2023/01/19 01:08:46;;;;;;;0.00;0.00;;;2.70;99.90;;;;;;5062551;28;20047;-84
2023/01/19 01:11:12;;;;;;;0.00;0.00;;;2.60;99.90;;;;;;5079148;28;20036;-84
2023/01/19 01:13:38;;;;;;;0.00;0.00;;;2.70;99.90;;;;;;5061697;28;20427;-83
2023/01/19 01:16:04;;;;;;;0.00;0.00;;;2.60;99.90;;;;;;5078810;28;20044;-83
2023/01/19 01:18:29;;;;;;;0.00;0.00;;;2.60;99.90;;;;;;5078806;28;20061;-84
2023/01/19 01:21:03;;;;;;;0.10;0.10;;;2.60;99.90;;;;;;5078806;28;20119;-84
2023/01/19 01:23:29;;;;;;;0.00;0.00;;;2.60;99.90;;;;;;5078525;28;20160;-84
2023/01/19 01:25:55;;;;;;;0.50;0.30;;;2.50;99.90;;;;;;5062073;28;20048;-84
2023/01/19 01:28:20;;;;;;;1.02;0.30;;;2.60;99.90;;;;;;5061851;28;20047;-83
2023/01/19 01:30:46;;;;;;;0.00;0.00;;;2.50;99.90;;;;;;5078497;28;20087;-83
2023/01/19 01:33:12;;;;;;;0.08;0.08;;;2.60;99.90;;;;;;5061270;28;20090;-84
2023/01/19 01:35:38;;;;;;;0.52;0.10;;;2.60;99.90;;;;;;5061568;28;20044;-84
2023/01/19 01:38:04;;;;;;;0.55;0.55;;;3.00;99.90;;;;;;5078415;28;20040;-83
2023/01/19 01:40:30;;;;;;;0.03;0.03;;;2.70;99.90;;;;;;5095250;28;20047;-84
2023/01/19 01:42:56;;;;;;;0.47;0.00;;;2.50;99.90;;;;;;5078323;28;20078;-83
2023/01/19 01:45:33;;;;;;;0.20;0.15;;;2.60;99.90;;;;;;5078348;28;20126;-84
2023/01/19 01:48:22;;;;;;;0.73;0.10;;;2.50;99.90;;;;;;5078538;28;20057;-84
2023/01/19 01:54:21;;;;;;;0.15;0.15;;;2.30;99.90;;;;;;5017206;28;20049;-84
2023/01/19 01:56:50;;;;;;;0.28;0.28;;;2.60;99.90;;;;;;5017351;28;20046;-83
2023/01/19 01:59:42;;;;;;;0.00;0.00;;;2.60;99.90;;;;;;5067009;28;20044;-84
2023/01/19 02:05:12;;;;;;;0.13;0.13;;;2.60;99.90;;;;;;5094303;28;20071;-84
2023/01/19 02:13:34;;;;;;;0.10;0.05;;;2.60;99.90;;;;;;5094707;28;20386;-83
2023/01/19 02:16:05;;;;;;;0.52;0.10;;;2.60;99.90;;;;;;5077728;28;20057;-84
2023/01/19 02:18:31;;;;;;;0.35;0.30;;;3.10;99.90;;;;;;5077904;28;20044;-84
2023/01/19 02:21:23;;;;;;;0.50;0.50;;;2.90;99.90;;;;;;5077695;28;20388;-84
2023/01/19 02:23:54;;;;;;;0.00;0.00;;;2.60;99.90;;;;;;5094728;28;20145;-84
2023/01/19 02:26:34;;;;;;;0.40;0.40;;;2.60;99.90;;;;;;5077885;28;20408;-84
2023/01/19 02:28:59;;;;;;;0.00;0.00;;;3.20;99.90;;;;;;5077637;28;20156;-83
2023/01/19 02:31:27;;;;;;;0.00;0.00;;;3.10;99.90;;;;;;5077237;28;20173;-84
2023/01/19 02:33:54;;;;;;;0.98;0.32;;;2.70;99.90;;;;;;5060592;28;20036;-83
2023/01/19 02:36:24;;;;;;;0.00;0.00;;;3.10;99.90;;;;;;5077401;28;20059;-84
2023/01/19 02:38:54;;;;;;;0.52;0.35;;;2.70;99.90;;;;;;5094289;28;20044;-83
2023/01/19 02:41:27;;;;;;;0.88;0.32;;;3.00;99.90;;;;;;5077197;28;20392;-84
2023/01/19 02:43:54;;;;;;;5.07;0.10;;;2.70;99.90;;;;;;5076663;28;20485;-84
2023/01/19 02:46:19;;;;;;;0.30;0.30;;;2.80;99.90;;;;;;5060232;28;20056;-84
2023/01/19 02:48:45;;;;;;;2.08;0.38;;;3.20;99.90;;;;;;5076643;28;20047;-84
2023/01/19 02:51:21;;;;;;;0.10;0.10;;;3.40;99.90;;;;;;5060211;28;20078;-84
2023/01/19 02:54:20;;;;;;;0.00;0.00;;;2.70;99.90;;;;;;5060400;28;20130;-83
2023/01/19 02:57:25;;;;;;;0.05;0.00;;;2.70;99.90;;;;;;5076611;28;20051;-84
2023/01/19 03:00:27;;;;;;;0.88;0.88;;;2.70;99.90;;;;;;5076770;28;20415;-84
2023/01/19 03:02:53;;;;;;;0.25;0.25;;;2.70;99.90;;;;;;5092846;28;20089;-84
2023/01/19 03:05:52;;;;;;;0.03;0.03;;;3.10;99.90;;;;;;5093429;28;20044;-84
2023/01/19 03:08:18;;;;;;;0.17;0.17;;;2.70;99.90;;;;;;5076504;28;20127;-83
2023/01/19 03:10:59;;;;;;;3.95;1.30;;;2.80;99.90;;;;;;5093493;28;20078;-84
2023/01/19 03:13:38;;;;;;;0.20;0.20;;;2.90;99.90;;;;;;5076588;28;20378;-84
2023/01/19 03:16:42;;;;;;;0.10;0.10;;;2.70;99.90;;;;;;5076554;28;20040;-84
2023/01/19 03:19:25;;;;;;;0.47;0.47;;;2.80;99.90;;;;;;5076370;28;20044;-83
2023/01/19 03:21:59;;;;;;;0.45;0.35;;;2.80;99.90;;;;;;5093835;28;20101;-84
2023/01/19 03:24:28;;;;;;;0.65;0.22;;;2.80;99.90;;;;;;5076165;28;20358;-83
2023/01/19 03:26:58;;;;;;;0.47;0.20;;;2.80;99.90;;;;;;5093003;28;20050;-84
2023/01/19 03:29:31;;;;;;;0.52;0.20;;;3.50;99.90;;;;;;5076220;28;20040;-84
2023/01/19 03:32:01;;;;;;;0.20;0.20;;;2.80;99.90;;;;;;5093885;28;20150;-84
2023/01/19 03:34:30;;;;;;;0.13;0.13;;;2.80;99.90;;;;;;5075689;28;20032;-83
2023/01/19 03:37:03;;;;;;;0.00;0.00;;;2.80;99.90;;;;;;5075923;28;20036;-83
2023/01/19 03:39:30;;;;;;;0.03;0.00;;;2.80;99.90;;;;;;5093206;28;20044;-83
2023/01/19 03:42:03;;;;;;;0.82;0.63;;;2.80;99.90;;;;;;5092785;28;20127;-83
2023/01/19 03:44:31;;;;;;;0.30;0.00;;;2.80;99.90;;;;;;5075510;28;20036;-84
2023/01/19 03:46:58;;;;;;;0.10;0.00;;;2.80;99.90;;;;;;5075979;28;20036;-84
2023/01/19 03:49:24;;;;;;;1.20;0.73;;;2.70;99.90;;;;;;5076126;28;20477;-84
2023/01/19 03:51:53;;;;;;;0.00;0.00;;;2.90;99.90;;;;;;5075830;28;20044;-83
2023/01/19 03:54:19;;;;;;;0.10;0.10;;;3.40;99.90;;;;;;5076039;28;20044;-84
2023/01/19 03:56:45;;;;;;;0.25;0.25;;;2.70;99.90;;;;;;5059110;28;20089;-83
2023/01/19 03:59:10;;;;;;;0.00;0.00;;;2.80;99.90;;;;;;5059083;28;20488;-84
2023/01/19 04:01:36;;;;;;;0.30;0.28;;;2.80;99.90;;;;;;5075891;28;20044;-83
2023/01/19 04:04:04;;;;;;;0.35;0.20;;;2.70;99.90;;;;;;5041790;28;20380;-83
2023/01/19 04:06:30;;;;;;;0.00;0.00;;;2.70;99.90;;;;;;5075954;28;20047;-84
2023/01/19 04:08:56;;;;;;;0.05;0.05;;;2.70;99.90;;;;;;5059300;28;20369;-84
2023/01/19 04:11:22;;;;;;;0.00;0.00;;;2.70;99.90;;;;;;5075490;28;20040;-84
2023/01/19 04:13:47;;;;;;;0.10;0.10;;;2.70;99.90;;;;;;5058478;28;20388;-84
2023/01/19 04:16:18;;;;;;;0.40;0.00;;;2.70;99.90;;;;;;5058603;28;20052;-83
2023/01/19 04:18:44;;;;;;;0.30;0.05;;;2.60;99.90;;;;;;5076564;28;20046;-84
2023/01/19 04:21:10;;;;;;;0.00;0.00;;;3.00;99.90;;;;;;5075575;28;20134;-84
2023/01/19 04:23:36;;;;;;;0.10;0.10;;;3.00;99.90;;;;;;5058764;28;20135;-84
2023/01/19 04:26:06;;;;;;;0.03;0.03;;;3.10;99.90;;;;;;5075662;28;20040;-84
2023/01/19 04:28:33;;;;;;;0.10;0.00;;;2.60;99.90;;;;;;5058925;28;20434;-84
2023/01/19 04:30:59;;;;;;;0.00;0.00;;;2.50;99.90;;;;;;5075615;28;20040;-83
2023/01/19 04:33:27;;;;;;;0.15;0.10;;;3.10;99.90;;;;;;5091659;28;20036;-84
2023/01/19 04:35:54;;;;;;;0.57;0.35;;;2.50;99.90;;;;;;5075720;28;20044;-83
2023/01/19 04:38:21;;;;;;;0.10;0.10;;;2.50;99.90;;;;;;5092334;28;20051;-84
2023/01/19 04:40:49;;;;;;;0.00;0.00;;;2.50;99.90;;;;;;5093142;28;20036;-83
2023/01/19 04:43:15;;;;;;;0.00;0.00;;;2.50;99.90;;;;;;5075071;28;20554;-84
2023/01/19 04:45:43;;;;;;;0.00;0.00;;;2.50;99.90;;;;;;5092398;28;20090;-83
2023/01/19 04:48:10;;;;;;;0.00;0.00;;;2.40;99.90;;;;;;5092723;28;20048;-84
2023/01/19 04:50:36;;;;;;;0.00;0.00;;;2.80;99.90;;;;;;5075445;28;20043;-84
2023/01/19 04:53:02;;;;;;;0.03;0.00;;;2.60;99.90;;;;;;5075363;28;20036;-83
2023/01/19 04:55:28;;;;;;;0.10;0.00;;;2.60;99.90;;;;;;5109536;28;20039;-83
2023/01/19 04:57:53;;;;;;;0.00;0.00;;;2.40;99.90;;;;;;5092247;28;20042;-83
2023/01/19 05:00:20;;;;;;;0.00;0.00;;;2.60;99.90;;;;;;5092383;28;20043;-83
2023/01/19 05:02:46;;;;;;;0.00;0.00;;;2.50;99.90;;;;;;5092595;28;20481;-84
2023/01/19 05:05:12;;;;;;;0.00;0.00;;;2.50;99.90;;;;;;5091830;28;20042;-84
2023/01/19 05:07:38;;;;;;;0.00;0.00;;;2.60;99.90;;;;;;5075224;28;20040;-84
2023/01/19 05:10:05;;;;;;;0.00;0.00;;;3.20;99.90;;;;;;5109880;28;20575;-84
2023/01/19 05:12:32;;;;;;;0.20;0.10;;;2.60;99.90;;;;;;5112667;28;20496;-85
2023/01/19 05:15:00;;;;;;;0.35;0.28;;;2.70;99.90;;;;;;5078623;28;20052;-86
2023/01/19 05:17:31;;;;;;;0.10;0.10;;;2.60;99.90;;;;;;5078770;28;20052;-87
2023/01/19 05:19:59;;;;;;;0.00;0.00;;;2.60;99.90;;;;;;5112962;28;20040;-86
2023/01/19 05:22:27;;;;;;;0.30;0.22;;;3.10;99.90;;;;;;5078733;28;20039;-86
2023/01/19 05:25:00;;;;;;;0.00;0.00;;;3.10;99.90;;;;;;5095673;28;20134;-86
2023/01/19 05:27:28;;;;;;;0.55;0.00;;;3.00;99.90;;;;;;5096532;28;20039;-86
2023/01/19 05:29:54;;;;;;;0.00;0.00;;;2.90;99.90;;;;;;5112299;28;20100;-87
2023/01/19 05:32:20;;;;;;;0.05;0.05;;;2.90;99.90;;;;;;5112294;28;20044;-87
2023/01/19 05:34:55;;;;;;;0.00;0.00;;;2.80;99.90;;;;;;5111684;28;20097;-86
2023/01/19 05:37:31;;;;;;;;;;;;;;;;;;;;;
2023/01/19 05:40:02;;;;;;;0.00;0.00;;;3.10;99.90;;;;;;5094866;28;20385;-87
2023/01/19 05:42:30;;;;;;;0.00;0.00;;;3.10;99.90;;;;;;5078514;28;20043;-85
2023/01/19 05:44:58;;;;;;;0.00;0.00;;;2.90;99.90;;;;;;5112192;28;20063;-85
2023/01/19 05:47:24;;;;;;;0.00;0.00;;;3.40;99.90;;;;;;5095478;28;20188;-84
2023/01/19 05:49:50;;;;;;;0.00;0.00;;;3.80;99.90;;;;;;5095210;28;20036;-85
2023/01/19 05:52:16;;;;;;;0.00;0.00;;;3.40;99.90;;;;;;5112029;28;20044;-85
2023/01/19 05:54:41;;;;;;;0.10;0.10;;;3.80;99.90;;;;;;5078492;28;20097;-85
2023/01/19 05:57:09;;;;;;;0.22;0.22;;;3.60;99.90;;;;;;5111824;28;20044;-84
2023/01/19 05:59:35;;;;;;;0.00;0.00;;;3.10;99.90;;;;;;5111964;28;20047;-84
2023/01/19 06:02:00;;;;;;;0.03;0.03;;;3.10;99.90;;;;;;5111750;28;20376;-84
2023/01/19 06:04:26;;;;;;;0.10;0.10;;;3.20;99.90;;;;;;5111357;27;20040;-83
2023/01/19 06:06:52;;;;;;;0.00;0.00;;;3.20;99.90;;;;;;5060963;28;20048;-83
2023/01/19 06:09:18;;;;;;;0.00;0.00;;;3.40;99.90;;;;;;5128925;27;20035;-82
2023/01/19 06:11:45;;;;;;;3.15;0.43;;;3.30;99.90;;;;;;5094594;28;20036;-82
2023/01/19 06:14:11;;;;;;;0.00;0.00;;;3.50;99.90;;;;;;5094616;28;20048;-83
2023/01/19 06:16:37;;;;;;;0.00;0.00;;;3.30;99.90;;;;;;5094451;28;20048;-82
2023/01/19 06:19:05;;;;;;;0.00;0.00;;;3.60;99.90;;;;;;5061281;28;20073;-82
2023/01/19 06:21:31;;;;;;;12.20;0.85;;;3.90;99.90;;;;;;5094461;28;20051;-83
2023/01/19 06:23:57;;;;;;;0.00;0.00;;;3.50;99.90;;;;;;5077353;28;20032;-82
2023/01/19 06:26:23;;;;;;;0.00;0.00;;;3.40;99.90;;;;;;5094485;28;20473;-82
2023/01/19 06:28:50;;;;;;;0.00;0.00;;;3.40;99.90;;;;;;5077424;28;20135;-82
2023/01/19 06:31:16;;;;;;;0.00;0.00;;;3.50;99.90;;;;;;5094155;28;20181;-82
2023/01/19 06:33:42;;;;;;;0.00;0.00;;;3.40;99.90;;;;;;5093998;28;20043;-82
2023/01/19 06:36:10;;;;;;;0.00;0.00;;;3.40;99.90;;;;;;5128262;27;20040;-84
2023/01/19 06:38:36;;;;;;;0.00;0.00;;;3.40;99.90;;;;;;5077146;28;20044;-84
2023/01/19 06:41:02;;;;;;;0.00;0.00;;;3.30;99.90;;;;;;5077409;28;20129;-82
2023/01/19 06:43:28;;;;;;;0.00;0.00;;;3.50;99.90;;;;;;5060504;28;20431;-83
2023/01/19 06:45:55;;;;;;;0.00;0.00;;;3.60;99.90;;;;;;5093788;28;20044;-83
2023/01/19 06:48:21;;;;;;;0.00;0.00;;;3.30;99.90;;;;;;5111127;28;20040;-83
2023/01/19 06:50:48;;;;;;;0.00;0.00;;;3.20;99.90;;;;;;5111175;28;20082;-83
2023/01/19 06:53:15;;;;;;;0.00;0.00;;;3.20;99.90;;;;;;5076962;28;20062;-83
2023/01/19 06:55:42;;;;;;;0.00;0.00;;;3.40;99.90;;;;;;5077047;28;20043;-82
2023/01/19 06:58:09;;;;;;;0.00;0.00;;;3.10;99.90;;;;;;5088820;28;20473;-83
2023/01/19 07:00:35;;;;;;;0.45;0.45;;;3.00;99.90;;;;;;5075941;28;20047;-83
2023/01/19 07:03:00;;;;;;;0.00;0.00;;;3.00;99.90;;;;;;5086002;28;20036;-83
2023/01/19 07:05:26;;;;;;;0.00;0.00;;;3.10;99.90;;;;;;5085431;28;20043;-82
2023/01/19 07:07:54;;;;;;;0.00;0.00;;;2.90;99.90;;;;;;5090492;28;20043;-83
2023/01/19 07:10:20;;;;;;;0.00;0.00;;;2.90;99.90;;;;;;5077689;28;20046;-83
2023/01/19 07:12:46;;;;;;;0.00;0.00;;;2.90;99.90;;;;;;5058923;28;20043;-83
2023/01/19 07:15:16;;;;;;;0.00;0.00;;;2.90;99.90;;;;;;5075521;28;20397;-83
2023/01/19 07:17:42;;;;;;;0.00;0.00;;;2.90;99.90;;;;;;5071288;28;20095;-84
2023/01/19 07:20:13;;;;;;;0.00;0.00;;;2.90;99.90;;;;;;5075503;28;20047;-83
2023/01/19 07:22:44;;;;;;;0.00;0.00;;;2.80;99.90;;;;;;5090886;28;20040;-83
2023/01/19 07:25:10;;;;;;;0.00;0.00;;;2.90;99.90;;;;;;5091976;28;20048;-82
2023/01/19 07:27:36;;;;;;;0.00;0.00;;;2.90;99.90;;;;;;5076028;28;20136;-82
2023/01/19 07:30:03;;;;;;;0.00;0.00;;;3.00;99.90;;;;;;5075804;28;20040;-82
2023/01/19 07:32:29;;;;;;;0.00;0.00;;;2.90;99.90;;;;;;5060078;28;20051;-82
2023/01/19 07:34:55;;;;;;;0.00;0.00;;;2.90;99.90;;;;;;5059082;28;20083;-82
2023/01/19 07:37:21;;;;;;;0.43;0.43;;;3.00;99.90;;;;;;5059615;28;20076;-82
2023/01/19 07:39:46;;;;;;;0.00;0.00;;;3.00;99.90;;;;;;5076091;28;20480;-83
2023/01/19 07:42:12;;;;;;;0.10;0.00;;;3.10;99.90;;;;;;5059354;28;20507;-84
2023/01/19 07:44:38;;;;;;;0.00;0.00;;;3.10;99.90;;;;;;5075549;28;20116;-82
2023/01/19 07:47:09;;;;;;;0.00;0.00;;;3.00;99.90;;;;;;5093267;28;20127;-85
2023/01/19 07:49:35;;;;;;;0.00;0.00;;;3.00;99.90;;;;;;5076156;28;20131;-84
2023/01/19 07:52:01;;;;;;;0.00;0.00;;;3.60;99.90;;;;;;5109581;28;20164;-84
2023/01/19 07:54:27;;;;;;;0.00;0.00;;;3.70;99.90;;;;;;5075940;28;20036;-85
2023/01/19 07:56:53;;;;;;;0.00;0.00;;;3.70;99.90;;;;;;5092982;28;20040;-83
2023/01/19 07:59:19;;;;;;;0.00;0.00;;;3.50;99.90;;;;;;5076026;28;20052;-85
2023/01/19 08:01:45;;;;;;;0.00;0.00;;;3.10;99.90;;;;;;5093006;28;20382;-83
2023/01/19 08:04:11;;;;;;;0.00;0.00;;;3.70;99.90;;;;;;5075112;28;20032;-84
2023/01/19 08:06:38;;;;;;;0.00;0.00;;;3.70;99.90;;;;;;5092684;28;20055;-86
2023/01/19 08:09:07;;;;;;;0.00;0.00;;;3.20;99.90;;;;;;5075841;28;20069;-85
2023/01/19 08:11:33;;;;;;;0.00;0.00;;;3.30;99.90;;;;;;5075935;28;20044;-85
2023/01/19 08:13:59;;;;;;;0.32;0.32;;;3.00;99.90;;;;;;5109357;28;20354;-84
2023/01/19 08:16:26;;;;;;;0.00;0.00;;;3.80;99.90;;;;;;5092199;28;20044;-83
2023/01/19 08:18:52;;;;;;;0.00;0.00;;;3.50;99.90;;;;;;5092775;28;20090;-82
2023/01/19 08:21:18;;;;;;;0.00;0.00;;;3.10;99.90;;;;;;5109618;28;20036;-83
2023/01/19 08:23:44;;;;;;;0.00;0.00;;;3.30;99.90;;;;;;5058747;28;20075;-85
2023/01/19 08:26:26;;;;;;;0.00;0.00;;;3.50;99.90;;;;;;5076009;28;20044;-85
2023/01/19 08:28:56;;;;;;;0.00;0.00;;;3.10;99.90;;;;;;5075697;28;20040;-88
2023/01/19 08:31:23;;;;;;;0.00;0.00;;;3.10;99.90;;;;;;5075650;28;20484;-85
2023/01/19 08:33:52;;;;;;;0.00;0.00;;;3.20;99.90;;;;;;5075007;28;20040;-83
2023/01/19 08:36:21;;;;;;;0.43;0.43;;;3.20;99.90;;;;;;5092184;28;20102;-83
2023/01/19 08:38:47;;;;;;;4.57;0.98;;;3.90;99.90;;;;;;5075590;28;20062;-82
2023/01/19 08:41:15;;;;;;;0.00;0.00;;;3.30;99.90;;;;;;5109402;28;20113;-82
2023/01/19 08:43:41;;;;;;;0.00;0.00;;;3.40;99.90;;;;;;5092145;28;20104;-82
2023/01/19 08:46:07;;;;;;;2.90;0.55;;;3.40;99.90;;;;;;5094608;28;20078;-82
2023/01/19 08:48:33;;;;;;;0.00;0.00;;;3.50;99.90;;;;;;5096200;28;20043;-82
2023/01/19 08:50:59;;;;;;;0.00;0.00;;;3.60;99.90;;;;;;5112963;28;20047;-82
2023/01/19 08:53:25;;;;;;;0.00;0.00;;;3.70;99.90;;;;;;5084669;28;20040;-82
2023/01/19 08:56:00;;;;;;;0.00;0.00;;;3.70;99.90;;;;;;5079427;28;20050;-82
2023/01/19 08:58:26;;;;;;;0.20;0.10;;;4.10;99.90;;;;;;5096251;28;20054;-82
2023/01/19 09:00:52;;;;;;;0.00;0.00;;;3.80;99.90;;;;;;5079075;28;20040;-82
2023/01/19 09:03:21;;;;;;;0.00;0.00;;;3.90;99.90;;;;;;5061305;28;20384;-82
2023/01/19 09:05:47;;;;;;;0.00;0.00;;;4.00;99.90;;;;;;5096150;28;20127;-82
2023/01/19 09:08:13;;;;;;;0.00;0.00;;;4.20;99.90;;;;;;5095866;28;20136;-82
2023/01/19 09:10:47;;;;;;;0.00;0.00;;;4.40;99.90;;;;;;5079071;28;20043;-82
2023/01/19 09:13:13;;;;;;;0.00;0.00;;;4.60;99.90;;;;;;5079042;28;20377;-82
2023/01/19 09:15:42;;;;;;;0.03;0.03;;;4.80;99.90;;;;;;5078524;28;20048;-87
2023/01/19 09:18:12;;;;;;;0.00;0.00;;;4.80;99.90;;;;;;5061912;28;20048;-83
2023/01/19 09:20:42;;;;;;;0.00;0.00;;;4.80;99.90;;;;;;5078930;28;20039;-83
2023/01/19 09:23:13;;;;;;;0.20;0.00;;;4.70;99.90;;;;;;5095587;28;20071;-83
2023/01/19 09:25:47;;;;;;;0.38;0.38;;;5.20;99.90;;;;;;5078780;28;20411;-87
2023/01/19 09:28:15;;;;;;;0.00;0.00;;;4.70;99.90;;;;;;5095691;28;20044;-83
2023/01/19 09:30:41;;;;;;;0.00;0.00;;;5.00;99.90;;;;;;5078621;28;20047;-82
2023/01/19 09:33:11;;;;;;;0.00;0.00;;;4.80;99.90;;;;;;5094863;28;20451;-84
2023/01/19 09:35:38;;;;;;;0.00;0.00;;;4.60;99.90;;;;;;5078478;28;20036;-83
2023/01/19 09:38:06;;;;;;;0.00;0.00;;;4.70;99.90;;;;;;5078453;28;20036;-83
2023/01/19 09:40:32;;;;;;;0.00;0.00;;;4.70;99.90;;;;;;5095263;28;20040;-83
2023/01/19 09:43:13;;;;;;;0.00;0.00;;;4.70;99.90;;;;;;5078221;28;20088;-83
2023/01/19 09:45:45;;;;;;;0.00;0.00;;;4.70;99.90;;;;;;5095382;28;20088;-83
2023/01/19 09:49:05;;;;;;;0.10;0.10;;;4.70;99.90;;;;;;5095184;28;20575;-83
2023/01/19 09:51:38;;;;;;;0.00;0.00;;;4.80;99.90;;;;;;5033716;28;20056;-83
2023/01/19 09:54:19;;;;;;;0.00;0.00;;;5.00;99.90;;;;;;5082014;28;20565;-83
2023/01/19 09:56:48;;;;;;;0.00;0.00;;;5.50;99.90;;;;;;5094664;28;20112;-83
2023/01/19 09:59:26;;;;;;;0.00;0.00;;;6.00;99.90;;;;;;5078038;28;20047;-84
2023/01/19 10:02:20;;;;;;;0.00;0.00;;;6.50;99.90;;;;;;5077721;28;20079;-83
2023/01/19 10:05:21;;;;;;;0.00;0.00;;;6.90;99.90;;;;;;5077033;28;20384;-83
2023/01/19 10:07:56;;;;;;;0.00;0.00;;;7.30;99.90;;;;;;5077880;28;20052;-83
2023/01/19 10:10:26;;;;;;;;;;;7.30;99.90;;;;;;5095248;28;20081;-83
2023/01/19 10:13:11;;;;;;;0.00;0.00;;;7.40;99.90;;;;;;5094779;28;20280;-83
2023/01/19 10:15:56;;;;;;;0.40;0.40;;;7.90;99.90;;;;;;5077772;28;20052;-83
2023/01/19 10:18:30;;;;;;;;;;;8.60;99.90;;;;;;5095000;28;20075;-83
2023/01/19 10:21:11;;;;;;;0.03;0.00;;;9.40;99.90;;;;;;5095196;28;19938;-83
2023/01/19 10:23:45;;;;;;;0.00;0.00;;;10.40;99.90;;;;;;5094467;28;20114;-84
2023/01/19 10:26:36;;;;;;;0.00;0.00;;;11.20;99.90;;;;;;5094367;28;20412;-83
2023/01/19 10:29:06;;;;;;;0.00;0.00;;;11.80;99.90;;;;;;5077377;28;20082;-83
2023/01/19 10:31:36;;;;;;;0.00;0.00;;;12.10;99.90;;;;;;5094270;28;20376;-84
2023/01/19 10:34:03;;;;;;;0.00;0.00;;;12.40;99.90;;;;;;5093837;28;20097;-84
2023/01/19 10:36:34;;;;;;;0.00;0.00;;;12.50;99.90;;;;;;5077267;28;20044;-84
2023/01/19 10:39:03;;;;;;;0.47;0.28;;;12.50;99.90;;;;;;5077166;28;20117;-83
2023/01/19 10:41:47;;;;;;;0.00;0.00;;;12.40;99.90;;;;;;5061144;28;20147;-83
2023/01/19 10:44:26;;;;;;;0.00;0.00;;;12.60;99.90;;;;;;5093937;28;20036;-84
2023/01/19 10:46:55;;;;;;;0.00;0.00;;;12.60;99.60;;;;;;5077186;28;20388;-83
2023/01/19 10:49:43;;;;;;;0.25;0.10;;;12.80;99.40;;;;;;5093895;28;20403;-83
2023/01/19 10:52:38;;;;;;;0.22;0.22;;;12.80;98.60;;;;;;5094020;28;20036;-83
2023/01/19 10:55:06;;;;;;;0.22;0.22;;;13.00;98.50;;;;;;5057071;28;20481;-83
2023/01/19 10:57:42;;;;;;;0.00;0.00;;;13.40;97.60;;;;;;5073516;28;20068;-84
2023/01/19 11:00:37;;;;;;;0.00;0.00;;;13.40;97.80;;;;;;5056776;28;20453;-84
2023/01/19 11:03:20;;;;;;;0.00;0.00;;;13.70;97.80;;;;;;5048075;28;20044;-84
2023/01/19 11:05:45;;;;;;;0.38;0.00;;;13.90;96.50;;;;;;5056932;28;20048;-84
2023/01/19 11:08:29;;;;;;;1.02;0.32;;;14.20;95.00;;;;;;5056061;28;20469;-84
2023/01/19 11:11:03;;;;;;;0.00;0.00;;;14.20;93.90;;;;;;5073630;28;20477;-83
2023/01/19 11:13:29;;;;;;;0.00;0.00;;;14.10;92.70;;;;;;5073800;28;20131;-84
2023/01/19 11:16:04;;;;;;;0.00;0.00;;;14.00;92.10;;;;;;5039512;28;20466;-84
2023/01/19 11:18:31;;;;;;;0.00;0.00;;;14.20;93.70;;;;;;5056592;28;20090;-84
2023/01/19 11:21:06;;;;;;;0.00;0.00;;;14.20;92.10;;;;;;5056421;28;20098;-84
2023/01/19 11:23:33;;;;;;;;;;;14.40;91.30;;;;;;5056864;28;20047;-84
2023/01/19 11:26:01;;;;;;;0.00;0.00;;;14.50;92.00;;;;;;5073171;28;19916;-84
2023/01/19 11:28:40;;;;;;;0.00;0.00;;;14.60;89.80;;;;;;5056536;28;20131;-84
2023/01/19 11:31:09;;;;;;;1.00;0.10;;;14.70;91.10;;;;;;5056127;28;20040;-84
2023/01/19 11:33:40;;;;;;;0.10;0.10;;;14.80;89.20;;;;;;5055762;28;20079;-84
2023/01/19 11:36:21;;;;;;;0.00;0.00;;;14.60;87.20;;;;;;5056738;28;20170;-84
2023/01/19 11:38:50;;;;;;;0.47;0.20;;;14.70;86.80;;;;;;5072910;28;20127;-84
2023/01/19 11:41:24;;;;;;;0.00;0.00;;;14.70;85.00;;;;;;5056215;28;20051;-85
2023/01/19 11:44:15;;;;;;;0.20;0.20;;;14.50;84.90;;;;;;5072713;28;20044;-84
2023/01/19 11:46:43;;;;;;;0.00;0.00;;;14.20;85.70;;;;;;5056192;28;20131;-84
2023/01/19 11:49:35;;;;;;;1.17;0.55;;;14.10;85.40;;;;;;5056019;28;20044;-84
2023/01/19 11:52:26;;;;;;;0.00;0.00;;;14.30;90.00;;;;;;5058291;28;20130;-84
2023/01/19 11:55:04;;;;;;;0.00;0.00;;;14.50;85.40;;;;;;5073778;28;20078;-84
2023/01/19 11:57:29;;;;;;;0.00;0.00;;;14.50;83.80;;;;;;5075605;28;20055;-84
2023/01/19 12:00:03;;;;;;;0.00;0.00;;;14.60;82.50;;;;;;5075978;28;20415;-85
2023/01/19 12:02:49;;;;;;;0.30;0.30;;;14.60;80.70;;;;;;5075842;28;20469;-85
2023/01/19 12:05:18;;;;;;;0.00;0.00;;;14.60;83.70;;;;;;5092553;28;20373;-85
2023/01/19 12:07:51;;;;;;;0.10;0.10;;;14.60;80.00;;;;;;5076044;28;20044;-85
2023/01/19 12:10:23;;;;;;;0.10;0.10;;;14.50;80.00;;;;;;5092738;28;20055;-85
2023/01/19 12:12:51;;;;;;;0.10;0.10;;;14.50;79.90;;;;;;5092742;28;20057;-85
